createdAt,value
2023-01-27T00:02:31.865Z,24.88
2023-01-27T00:07:34.984Z,34.60
2023-01-27T00:12:56.892Z,24.40
2023-01-27T00:17:59.795Z,28.75
2023-01-27T00:23:20.077Z,30.63
2023-01-27T00:28:25.550Z,28.20
2023-01-27T00:33:29.262Z,35.35
2023-01-27T00:38:34.076Z,50.58
2023-01-27T00:43:38.247Z,27.20
2023-01-27T00:48:41.197Z,35.25
2023-01-27T00:53:43.921Z,30.13
2023-01-27T00:58:48.120Z,45.53
2023-01-27T01:03:50.944Z,32.40
2023-01-27T01:08:53.803Z,39.78
2023-01-27T01:13:57.929Z,26.25
2023-01-27T01:19:00.727Z,24.80
2023-01-27T01:24:03.485Z,27.55
2023-01-27T01:29:07.624Z,25.27
2023-01-27T01:34:11.028Z,34.65
2023-01-27T01:39:13.823Z,42.33
2023-01-27T01:44:22.553Z,59.95
2023-01-27T01:49:30.806Z,57.10
2023-01-27T01:54:37.081Z,83.35
2023-01-27T01:59:45.418Z,36.03
2023-01-27T02:04:52.105Z,32.33
2023-01-27T02:09:57.249Z,31.75
2023-01-27T02:15:01.615Z,37.38
2023-01-27T02:20:11.778Z,49.58
2023-01-27T02:25:20.696Z,32.25
2023-01-27T02:30:25.469Z,47.08
2023-01-27T02:35:37.285Z,47.92
2023-01-27T02:40:41.512Z,46.58
2023-01-27T02:45:46.965Z,24.83
2023-01-27T02:50:50.020Z,21.98
2023-01-27T02:55:52.867Z,25.67
2023-01-27T03:00:56.978Z,25.42
2023-01-27T03:05:59.760Z,24.02
2023-01-27T03:11:02.626Z,23.38
2023-01-27T03:16:26.056Z,21.20
2023-01-27T03:21:30.402Z,29.15
2023-01-27T03:26:33.326Z,30.20
2023-01-27T03:31:38.083Z,28.83
2023-01-27T03:36:58.833Z,27.08
2023-01-27T03:42:19.015Z,27.98
2023-01-27T03:47:24.256Z,30.15
2023-01-27T03:52:27.783Z,22.50
2023-01-27T03:57:30.553Z,23.13
2023-01-27T04:02:53.152Z,45.38
2023-01-27T04:07:56.066Z,98.07
2023-01-27T04:20:08.656Z,31.30
2023-01-27T04:25:13.317Z,26.13
2023-01-27T04:30:16.595Z,28.23
2023-01-27T04:35:23.358Z,32.78
2023-01-27T04:40:28.036Z,33.83
2023-01-27T04:45:30.798Z,34.25
2023-01-27T04:50:35.130Z,29.48
2023-01-27T04:55:38.124Z,26.25
2023-01-27T05:00:41.090Z,27.85
2023-01-27T05:05:45.143Z,31.85
2023-01-27T05:10:47.892Z,32.72
2023-01-27T05:15:50.605Z,30.90
2023-01-27T05:20:54.752Z,27.17
2023-01-27T05:25:57.626Z,28.90
2023-01-27T05:31:03.786Z,31.80
2023-01-27T05:36:09.894Z,29.95
2023-01-27T05:41:14.658Z,24.67
2023-01-27T05:46:19.546Z,30.42
2023-01-27T05:51:26.146Z,28.73
2023-01-27T05:56:29.087Z,26.02
2023-01-27T06:01:33.635Z,27.27
2023-01-27T06:06:37.753Z,26.02
2023-01-27T06:11:40.507Z,37.47
2023-01-27T06:16:47.215Z,28.45
2023-01-27T06:21:51.561Z,30.58
2023-01-27T06:26:54.387Z,45.33
2023-01-27T06:31:57.204Z,44.70
2023-01-27T06:37:01.383Z,28.77
2023-01-27T06:42:05.433Z,31.13
2023-01-27T06:47:08.314Z,41.30
2023-01-27T06:52:12.492Z,32.10
2023-01-27T06:57:16.310Z,26.67
2023-01-27T07:02:19.122Z,33.15
2023-01-27T07:07:23.230Z,34.83
2023-01-27T07:12:25.923Z,31.52
2023-01-27T07:17:28.665Z,27.92
2023-01-27T07:22:32.911Z,32.78
2023-01-27T07:27:35.818Z,35.90
2023-01-27T07:32:38.665Z,30.80
2023-01-27T07:37:42.769Z,42.83
2023-01-27T07:42:45.548Z,31.33
2023-01-27T07:47:48.387Z,23.95
2023-01-27T07:52:52.444Z,23.00
2023-01-27T07:57:55.534Z,35.70
2023-01-27T08:02:59.594Z,12.43
2023-01-27T08:08:04.707Z,7.55
2023-01-27T08:13:07.541Z,10.05
2023-01-27T08:18:10.715Z,13.55
2023-01-27T08:23:14.778Z,30.67
2023-01-27T08:28:17.921Z,23.58
2023-01-27T08:33:21.470Z,8.70
2023-01-27T08:38:25.685Z,7.47
2023-01-27T08:43:28.632Z,7.45
2023-01-27T08:48:32.351Z,7.07
2023-01-27T08:53:37.526Z,11.75
2023-01-27T08:58:40.584Z,9.45
2023-01-27T09:03:43.389Z,11.50
2023-01-27T09:09:10.975Z,11.65
2023-01-27T09:14:14.948Z,16.60
2023-01-27T09:19:18.319Z,33.60
2023-01-27T09:24:23.179Z,25.17
2023-01-27T09:29:26.081Z,16.88
2023-01-27T09:34:28.988Z,8.77
2023-01-27T09:39:36.935Z,15.52
2023-01-27T09:45:10.619Z,10.57
2023-01-27T09:50:29.465Z,10.13
2023-01-27T09:55:38.758Z,8.85
2023-01-27T10:00:55.942Z,11.18
2023-01-27T10:06:39.174Z,13.32
2023-01-27T10:11:56.369Z,4.88
2023-01-27T10:17:15.703Z,11.07
2023-01-27T10:22:25.491Z,3.38
2023-01-27T10:27:37.138Z,4.35
2023-01-27T10:32:45.625Z,4.97
2023-01-27T10:37:57.341Z,3.67
2023-01-27T10:43:07.293Z,5.63
2023-01-27T10:48:26.881Z,1.98
2023-01-27T10:53:39.543Z,6.53
2023-01-27T10:58:50.765Z,4.68
2023-01-27T11:03:57.777Z,15.52
2023-01-27T11:14:17.581Z,2.72
2023-01-27T11:19:31.893Z,2.97
2023-01-27T11:24:43.581Z,2.05
2023-01-27T11:29:55.250Z,2.10
2023-01-27T11:35:03.788Z,6.13
2023-01-27T11:40:17.002Z,5.55
2023-01-27T11:45:22.184Z,5.25
2023-01-27T11:50:30.443Z,1.88
2023-01-27T11:55:38.331Z,5.43
2023-01-27T12:00:46.271Z,10.68
2023-01-27T12:05:56.055Z,8.48
2023-01-27T12:11:18.340Z,7.15
2023-01-27T12:16:25.806Z,6.72
2023-01-27T12:21:38.881Z,11.60
2023-01-27T12:26:45.109Z,3.67
2023-01-27T12:31:54.037Z,5.70
2023-01-27T12:36:58.128Z,6.85
2023-01-27T12:42:00.991Z,9.20
2023-01-27T12:47:18.542Z,8.30
2023-01-27T12:52:22.870Z,4.35
2023-01-27T12:57:34.298Z,5.50
2023-01-27T13:02:39.515Z,4.20
2023-01-27T13:07:46.753Z,9.55
2023-01-27T13:12:51.728Z,7.57
2023-01-27T13:17:57.924Z,6.22
2023-01-27T13:23:04.223Z,5.93
2023-01-27T13:28:09.634Z,13.10
2023-01-27T13:33:28.211Z,14.43
2023-01-27T13:38:38.677Z,9.65
2023-01-27T13:43:44.716Z,13.23
2023-01-27T13:48:53.278Z,7.68
2023-01-27T13:54:00.523Z,4.85
2023-01-27T13:59:15.577Z,12.55
2023-01-27T14:04:43.593Z,48.10
2023-01-27T14:09:58.767Z,42.53
2023-01-27T14:15:15.762Z,22.20
2023-01-27T14:25:48.001Z,9.55
2023-01-27T14:30:56.482Z,7.25
2023-01-27T14:36:10.663Z,13.15
2023-01-27T14:41:23.010Z,5.68
2023-01-27T14:46:42.846Z,18.52
2023-01-27T14:51:51.376Z,2.72
2023-01-27T14:57:22.998Z,5.43
2023-01-27T15:02:43.358Z,5.38
2023-01-27T15:07:57.207Z,14.63
2023-01-27T15:13:33.148Z,11.90
2023-01-27T15:18:57.365Z,15.23
2023-01-27T15:24:25.627Z,18.92
2023-01-27T15:29:31.641Z,10.18
2023-01-27T15:34:34.470Z,8.98
2023-01-27T15:40:04.016Z,11.38
2023-01-27T15:45:27.762Z,13.68
2023-01-27T15:50:33.285Z,9.18
2023-01-27T15:55:38.600Z,6.07
2023-01-27T16:00:50.091Z,10.35
2023-01-27T16:05:56.557Z,11.15
2023-01-27T16:11:23.868Z,21.15
2023-01-27T16:16:36.113Z,12.50
2023-01-27T16:21:47.559Z,13.73
2023-01-27T16:26:55.172Z,14.43
2023-01-27T16:32:04.672Z,19.88
2023-01-27T16:37:18.870Z,43.58
2023-01-27T16:42:29.525Z,21.35
2023-01-27T16:47:42.495Z,12.88
2023-01-27T16:52:46.849Z,12.35
2023-01-27T16:57:50.131Z,17.38
2023-01-27T17:02:59.127Z,8.70
2023-01-27T17:08:04.827Z,4.63
2023-01-27T17:13:26.038Z,4.60
2023-01-27T17:18:37.547Z,6.15
2023-01-27T17:23:44.520Z,5.35
2023-01-27T17:28:48.700Z,34.95
2023-01-27T17:34:00.826Z,6.05
2023-01-27T17:39:03.615Z,9.45
2023-01-27T17:44:13.075Z,10.27
2023-01-27T17:49:19.038Z,17.00
2023-01-27T17:54:25.992Z,19.67
2023-01-27T17:59:29.602Z,15.48
2023-01-27T18:04:39.835Z,25.95
2023-01-27T18:09:47.288Z,16.77
2023-01-27T18:14:50.070Z,20.85
2023-01-27T18:19:56.058Z,17.77
2023-01-27T18:25:01.477Z,18.25
2023-01-27T18:30:11.355Z,16.35
2023-01-27T18:35:26.125Z,23.83
2023-01-27T18:40:31.754Z,21.50
2023-01-27T18:45:34.644Z,18.83
2023-01-27T18:50:43.179Z,20.40
2023-01-27T18:55:46.098Z,16.52
2023-01-27T19:00:51.110Z,28.35
2023-01-27T19:05:55.774Z,26.83
2023-01-27T19:10:58.587Z,19.95
2023-01-27T19:16:01.490Z,25.65
2023-01-27T19:21:06.336Z,12.73
2023-01-27T19:26:16.712Z,12.93
2023-01-27T19:31:21.101Z,10.55
2023-01-27T19:36:28.167Z,19.40
2023-01-27T19:46:34.992Z,7.78
2023-01-27T19:51:39.315Z,10.77
2023-01-27T19:56:42.212Z,12.07
2023-01-27T20:01:45.036Z,16.05
2023-01-27T20:06:49.199Z,21.17
2023-01-27T20:11:52.066Z,9.75
2023-01-27T20:16:54.876Z,11.38
2023-01-27T20:22:01.435Z,9.07
2023-01-27T20:27:04.219Z,8.90
2023-01-27T20:32:09.483Z,10.25
2023-01-27T20:37:13.634Z,12.10
2023-01-27T20:42:16.429Z,15.15
2023-01-27T20:47:19.226Z,19.02
2023-01-27T20:52:25.020Z,10.48
2023-01-27T20:57:31.052Z,15.18
2023-01-27T21:02:33.930Z,12.20
2023-01-27T21:07:38.115Z,10.90
2023-01-27T21:12:40.919Z,18.90
2023-01-27T21:17:43.731Z,31.77
2023-01-27T21:22:47.980Z,25.50
2023-01-27T21:27:50.838Z,18.70
2023-01-27T21:32:53.961Z,10.57
2023-01-27T21:37:58.227Z,8.40
2023-01-27T21:43:18.662Z,8.77
2023-01-27T21:48:21.384Z,10.68
2023-01-27T21:53:26.659Z,8.27
2023-01-27T21:58:29.471Z,11.15
2023-01-27T22:03:32.282Z,5.38
2023-01-27T22:08:37.315Z,9.23
2023-01-27T22:13:40.431Z,8.38
2023-01-27T22:18:43.294Z,7.38
2023-01-27T22:23:47.885Z,7.07
2023-01-27T22:28:50.655Z,4.93
2023-01-27T22:33:54.352Z,6.07
2023-01-27T22:38:58.591Z,7.85
2023-01-27T22:44:01.294Z,5.07
2023-01-27T22:49:04.215Z,6.63
2023-01-27T22:54:10.443Z,3.80
2023-01-27T22:59:13.977Z,6.23
2023-01-27T23:04:16.787Z,4.47
2023-01-27T23:09:20.858Z,5.97
2023-01-27T23:14:23.975Z,6.10
2023-01-27T23:19:26.738Z,6.97
2023-01-27T23:24:30.962Z,14.38
2023-01-27T23:29:33.790Z,5.38
2023-01-27T23:34:36.609Z,5.22
2023-01-27T23:39:45.639Z,12.77
2023-01-27T23:44:48.783Z,8.20
2023-01-27T23:49:53.912Z,6.18
2023-01-27T23:54:58.093Z,8.63
